Cut Bank Municipal Airport
KCTB : now visible

Airfield :











YOU CAN JOIN US ON...

 
LOGIN :

Register | Disclaimer

   EN    FR    IT 

 









Legend :    VFR   Marginal VFR   IFR   Intensive IFR   Very Intensive IFR
Visi :
Ceiling :
>= 8 km
>= 3000ft
5 to 8 km
1000 to 3000 ft
1500m to 5 km
500 to 1000 ft
800 to 1500m
200 to 500 ft
< 800m
< 200 ft
Symbols :   Thunderstorms  Fog  Heavy snow  Heavy precipitations  Wind > 20 kt






- Airport Elevation : 3854 ft


KCTB - Cut Bank Municipal

CURRENT METAR :
  • 290956Z AUTO 23021G32KT 10SM CLR 06/M01 A2946 RMK AO2 PK WND 23032/0952 SLP977 T00561011

EXPIRED METARs :
  • 290856Z AUTO 22015G24KT 10SM CLR 04/M01 A2948 RMK AO2 PK WND 21027/0836 SLP991 T00441011 58017
  • 290756Z AUTO 22011KT 10SM CLR 04/M02 A2951 RMK AO2 SLP000 T00441022
  • 290656Z AUTO 24014G29KT 10SM CLR 05/M03 A2952 RMK AO2 PK WND 23029/0649 SLP006 T00501028 400831144
  • 290556Z AUTO 20005KT 10SM CLR 03/M03 A2954 RMK AO2 SLP017 T00281033 10061 20022 56006

TAF KCTB
Valid from the 29 at 06:00 until the 01 at 06:00 UTC


290532Z 2906/0106 19015G30KT P6SM FEW090 SCT250 WS020/24055KT
FM291700 21025G40KT P6SM FEW090 SCT250
PROB30 2923/0102 6SM -RA BR BKN050
KZLC FIR / North America



MET'MAP, your aeronautical weather chart ! - Copyright ORBIFLY December 2007 - Disclaimer

ORBIFLY MET'MAP TEAM :

Programming & Development : Alexandra Zaïnal
Original concept : Baudouin d'Aumeries
Technical & hardware support : Manuel Goepfert
Assistance : Marc-Olivier Méhu




SOURCES & CREDITS :

   NOAA       Earth
Advisory